Terminal Aerodrome Forecast
Issued by NWS Grand Junction, CO

Current Version | Previous Version | Text Only | Print | Product List | Glossary On
Versions: 1 2 3 4 5 6 7 8 9 10 11 12 13 14 15 16 17 18 19 20 21 22 23 24 25 26 27 28 29 30 31 32
000
FTUS45 KGJT 222327
TAFGJT
TAF
KGJT 222327Z 2300/2324 24008KT P6SM VCTS SCT080CB BKN120
      TEMPO 2300/2302 -TSRA SCT050CB
     FM230200 12006KT P6SM VCSH BKN110
     FM230600 11007KT P6SM -SHRA SCT060 OVC080
     FM231500 24010KT P6SM VCSH BKN080
     FM231800 20012KT P6SM OVC100=

USA.gov is the U.S. government's official web portal to all federal, state and local government web resources and services.